Time;durP1;ratioP1;P1;durP2;ratioP2;P2;SDS_P1;SDS_P2;PMS_P1;PMS_P2;Temp;Humidity;BMP_temperature;BMP_pressure;BME280_temperature;BME280_humidity;BME280_pressure;Samples;Min_cycle;Max_cycle;Signal;HPM_P1;HPM_P2
2021/10/15 00:02:16;;;;;;;20.48;6.03;;;;;;;15.11;70.83;99585.13;5016193;28;20030;-86
2021/10/15 00:04:42;;;;;;;12.68;5.85;;;;;;;14.97;71.45;99587.59;5012911;28;20049;-82
2021/10/15 00:07:08;;;;;;;19.75;6.20;;;;;;;15.05;71.42;99581.63;5018638;28;20030;-83
2021/10/15 00:09:34;;;;;;;16.33;6.57;;;;;;;14.91;71.90;99578.66;5013990;28;20042;-84
2021/10/15 00:12:00;;;;;;;23.98;6.30;;;;;;;15.00;71.74;99570.78;5025929;28;20037;-84
2021/10/15 00:14:26;;;;;;;26.90;6.63;;;;;;;14.66;72.55;99567.84;5014006;28;20446;-85
2021/10/15 00:16:53;;;;;;;16.08;5.80;;;;;;;14.90;71.48;99568.09;5008687;28;20030;-83
2021/10/15 00:19:19;;;;;;;16.45;5.93;;;;;;;14.76;72.71;99573.28;5009887;28;20513;-84
2021/10/15 00:21:46;;;;;;;9.50;5.32;;;;;;;14.71;73.11;99573.28;5010213;28;20026;-83
2021/10/15 00:24:11;;;;;;;16.50;5.47;;;;;;;14.85;72.48;99574.34;5013405;28;20022;-83
2021/10/15 00:26:37;;;;;;;12.57;5.63;;;;;;;14.66;73.29;99570.56;5014899;28;20274;-86
2021/10/15 00:29:05;;;;;;;7.85;5.05;;;;;;;15.06;71.97;99577.00;5025153;28;20017;-84
2021/10/15 00:31:31;;;;;;;10.98;5.25;;;;;;;14.63;73.41;99563.81;5015914;28;20122;-85
2021/10/15 00:33:57;;;;;;;7.88;4.45;;;;;;;14.64;73.74;99566.22;5022382;28;20497;-92
2021/10/15 00:36:23;;;;;;;9.07;4.70;;;;;;;14.63;74.47;99571.94;5024112;28;20033;-84
2021/10/15 00:38:48;;;;;;;10.88;5.07;;;;;;;14.68;74.46;99577.34;5019220;28;20056;-85
2021/10/15 00:41:14;;;;;;;7.70;5.03;;;;;;;14.77;74.39;99577.59;5016816;28;20049;-89
2021/10/15 00:43:59;;;;;;;9.98;6.22;;;;;;;14.78;74.39;99581.94;5014632;28;20033;-87
2021/10/15 00:46:24;;;;;;;8.63;5.97;;;;;;;14.67;74.65;99581.13;5013090;28;20087;-88
2021/10/15 00:48:50;;;;;;;10.48;7.15;;;;;;;14.62;74.84;99592.00;5019040;28;20029;-87
2021/10/15 00:51:15;;;;;;;9.07;7.07;;;;;;;15.00;73.99;99607.91;5018699;28;20041;-87
2021/10/15 00:53:41;;;;;;;11.43;8.45;;;;;;;14.75;75.12;99602.28;5016257;28;20479;-79
2021/10/15 00:56:07;;;;;;;10.95;8.70;;;;;;;15.03;74.28;99600.06;5011913;28;20038;-77
2021/10/15 00:58:32;;;;;;;10.88;8.95;;;;;;;14.94;75.07;99601.72;5017690;28;20041;-76
2021/10/15 01:00:58;;;;;;;13.15;8.15;;;;;;;15.12;74.48;99605.75;5011858;28;20175;-79
2021/10/15 01:03:24;;;;;;;9.02;7.40;;;;;;;15.13;74.55;99610.09;5015025;28;20109;-79
2021/10/15 01:05:50;;;;;;;8.60;7.05;;;;;;;15.27;74.03;99607.56;5018849;28;20047;-78
2021/10/15 01:08:15;;;;;;;6.95;6.18;;;;;;;15.18;74.18;99601.09;5019712;28;20605;-78
2021/10/15 01:10:41;;;;;;;5.97;5.15;;;;;;;15.17;74.39;99602.19;5015736;28;20048;-78
2021/10/15 01:13:07;;;;;;;5.30;4.18;;;;;;;15.21;74.34;99603.25;5013124;28;20392;-79
2021/10/15 01:15:33;;;;;;;4.18;3.78;;;;;;;15.18;74.72;99601.94;5012032;28;20391;-77
2021/10/15 01:17:59;;;;;;;3.25;2.45;;;;;;;15.29;74.15;99607.31;5013288;28;20529;-76
2021/10/15 01:20:24;;;;;;;2.35;1.60;;;;;;;14.91;74.87;99603.06;5021311;28;20495;-75
2021/10/15 01:22:50;;;;;;;2.88;1.98;;;;;;;15.25;73.82;99608.97;5015305;28;20044;-76
2021/10/15 01:25:16;;;;;;;2.58;1.70;;;;;;;15.16;74.57;99614.13;5013869;28;20030;-74
2021/10/15 01:27:41;;;;;;;3.88;1.25;;;;;;;15.24;74.22;99610.84;5022129;28;20040;-75
2021/10/15 01:30:07;;;;;;;3.25;1.45;;;;;;;14.99;74.84;99636.97;5012000;28;20038;-76
2021/10/15 01:32:33;;;;;;;2.05;0.65;;;;;;;13.41;74.87;99658.91;5011062;28;20057;-75
2021/10/15 01:34:59;;;;;;;5.15;0.45;;;;;;;12.53;77.63;99656.44;5018549;28;20085;-76
2021/10/15 01:37:24;;;;;;;2.30;0.70;;;;;;;12.50;77.29;99680.47;5016017;28;20518;-74
2021/10/15 01:39:50;;;;;;;0.88;0.50;;;;;;;12.11;77.58;99676.84;5008470;28;20045;-74
2021/10/15 01:45:00;;;;;;;2.92;0.63;;;;;;;11.96;77.21;99699.06;5015074;28;20560;-75
2021/10/15 01:47:25;;;;;;;2.05;0.70;;;;;;;11.90;77.15;99697.38;5012651;28;20041;-75
2021/10/15 01:49:51;;;;;;;0.85;0.77;;;;;;;11.61;78.18;99705.69;5023635;28;20040;-75
2021/10/15 01:52:17;;;;;;;2.60;0.80;;;;;;;11.71;78.09;99704.97;5011456;28;20120;-74
2021/10/15 01:54:43;;;;;;;1.10;0.70;;;;;;;11.94;77.46;99703.06;5022485;28;20476;-74
2021/10/15 01:57:09;;;;;;;1.88;1.10;;;;;;;11.70;78.13;99709.56;5017215;28;20080;-73
2021/10/15 01:59:34;;;;;;;2.50;1.50;;;;;;;11.46;78.47;99705.44;5010797;28;20042;-75
2021/10/15 02:02:00;;;;;;;3.53;2.15;;;;;;;11.41;78.98;99709.72;5024352;28;20041;-75
2021/10/15 02:04:25;;;;;;;3.17;2.28;;;;;;;11.42;78.95;99715.94;5020508;28;20037;-75
2021/10/15 02:06:51;;;;;;;4.70;2.00;;;;;;;11.60;78.36;99711.31;5017053;28;20041;-73
2021/10/15 02:09:17;;;;;;;4.20;2.60;;;;;;;11.66;78.34;99721.09;5016576;28;20034;-75
2021/10/15 02:11:42;;;;;;;3.85;2.42;;;;;;;11.78;77.65;99718.28;5013508;28;20048;-75
2021/10/15 02:14:08;;;;;;;3.65;2.10;;;;;;;11.89;77.73;99725.44;5010511;28;20120;-75
2021/10/15 02:16:34;;;;;;;3.78;2.20;;;;;;;11.72;78.26;99728.19;5015388;28;20076;-75
2021/10/15 02:19:00;;;;;;;2.45;2.00;;;;;;;11.84;77.38;99734.28;5004465;28;20038;-75
2021/10/15 02:21:25;;;;;;;3.97;2.67;;;;;;;11.91;77.34;99733.28;5011793;28;20045;-75
2021/10/15 02:23:51;;;;;;;5.35;2.40;;;;;;;11.72;77.52;99733.59;5006996;28;20934;-75
2021/10/15 02:26:20;;;;;;;5.85;2.70;;;;;;;11.39;78.09;99729.91;5009413;28;20042;-75
2021/10/15 02:28:47;;;;;;;3.33;2.63;;;;;;;11.63;78.02;99727.81;5010076;28;20038;-75
2021/10/15 02:31:12;;;;;;;3.75;2.42;;;;;;;11.95;76.42;99735.22;5018606;28;20067;-76
2021/10/15 02:33:38;;;;;;;2.67;2.47;;;;;;;11.60;77.47;99736.41;5011160;28;20057;-75
2021/10/15 02:36:04;;;;;;;7.70;3.00;;;;;;;11.75;77.49;99745.78;5010826;28;20109;-76
2021/10/15 02:38:29;;;;;;;5.97;2.67;;;;;;;11.75;76.82;99743.88;5015530;28;20061;-76
2021/10/15 02:40:55;;;;;;;4.03;3.00;;;;;;;11.33;78.35;99742.50;5013629;28;20022;-74
2021/10/15 02:43:21;;;;;;;6.38;3.00;;;;;;;11.78;76.81;99746.06;5018362;28;20036;-75
2021/10/15 02:45:46;;;;;;;7.82;3.50;;;;;;;11.53;77.31;99752.75;5014011;28;20030;-75
2021/10/15 02:48:12;;;;;;;7.15;3.10;;;;;;;11.58;77.50;99754.72;5012892;28;20380;-75
2021/10/15 02:50:37;;;;;;;6.32;2.63;;;;;;;11.47;78.26;99759.16;5018086;28;20037;-75
2021/10/15 02:53:03;;;;;;;7.43;3.58;;;;;;;11.58;77.75;99768.22;5017375;28;20464;-76
2021/10/15 02:55:28;;;;;;;7.65;2.58;;;;;;;11.61;77.74;99764.19;5025140;28;20045;-76
2021/10/15 02:57:54;;;;;;;3.55;2.70;;;;;;;11.83;76.43;99767.72;5019162;28;20054;-76
2021/10/15 03:00:19;;;;;;;5.22;3.00;;;;;;;11.65;77.35;99771.56;5015024;28;20037;-78
2021/10/15 03:02:45;;;;;;;8.63;2.72;;;;;;;11.60;77.21;99768.78;5016628;28;20386;-77
2021/10/15 03:05:10;;;;;;;9.57;3.90;;;;;;;11.54;77.20;99778.66;5016244;28;20026;-77
2021/10/15 03:07:36;;;;;;;6.95;3.10;;;;;;;11.34;77.61;99784.56;5011432;28;20026;-77
2021/10/15 03:10:03;;;;;;;6.72;3.53;;;;;;;11.63;76.97;99778.25;5012004;28;20049;-79
2021/10/15 03:12:29;;;;;;;7.43;4.00;;;;;;;11.57;77.32;99778.19;5020641;28;20111;-78
2021/10/15 03:14:54;;;;;;;9.30;3.83;;;;;;;11.53;77.42;99782.44;5015195;28;20041;-78
2021/10/15 03:17:20;;;;;;;9.55;4.00;;;;;;;11.57;77.58;99782.78;5006192;28;20533;-79
2021/10/15 03:19:45;;;;;;;8.00;4.05;;;;;;;11.45;78.11;99784.72;5016381;28;20544;-80
2021/10/15 03:22:11;;;;;;;7.20;4.25;;;;;;;11.72;76.99;99790.25;5016383;28;20042;-78
2021/10/15 03:24:36;;;;;;;8.95;4.82;;;;;;;11.41;77.79;99796.00;5015296;28;20466;-80
2021/10/15 03:27:02;;;;;;;9.20;5.88;;;;;;;11.35;78.12;99801.59;5012286;28;20566;-79
2021/10/15 03:29:27;;;;;;;9.15;5.70;;;;;;;11.45;77.41;99799.03;5021726;28;20036;-80
2021/10/15 03:31:53;;;;;;;10.88;6.97;;;;;;;11.63;76.62;99800.66;5018324;28;20052;-80
2021/10/15 03:34:18;;;;;;;10.38;5.85;;;;;;;11.56;76.38;99803.53;5009362;28;20403;-79
2021/10/15 03:36:44;;;;;;;12.48;6.15;;;;;;;11.09;77.71;99801.97;5021084;28;20045;-79
2021/10/15 03:39:11;;;;;;;9.70;5.35;;;;;;;11.08;77.27;99802.25;5015053;28;20215;-79
2021/10/15 03:41:38;;;;;;;10.65;5.80;;;;;;;11.30;76.49;99809.59;5012509;28;20037;-79
2021/10/15 03:44:04;;;;;;;8.98;5.40;;;;;;;11.45;76.11;99811.69;5021003;28;20041;-79
2021/10/15 03:46:30;;;;;;;10.43;5.55;;;;;;;11.34;75.86;99819.63;5014352;28;20045;-79
2021/10/15 03:48:58;;;;;;;8.70;4.00;;;;;;;11.13;75.83;99813.09;5021767;28;20033;-80
2021/10/15 03:51:23;;;;;;;12.80;3.78;;;;;;;11.18;75.93;99817.75;5019271;28;20038;-79
2021/10/15 03:53:49;;;;;;;10.45;3.60;;;;;;;11.02;75.87;99822.09;5013553;28;20048;-79
2021/10/15 03:56:15;;;;;;;8.25;3.40;;;;;;;11.08;75.54;99824.59;5023423;28;20045;-79
2021/10/15 03:58:41;;;;;;;7.57;2.38;;;;;;;10.92;76.00;99825.41;5005935;28;20052;-79
2021/10/15 04:01:07;;;;;;;6.13;2.53;;;;;;;11.07;75.46;99820.28;5011838;28;20033;-79
2021/10/15 04:03:33;;;;;;;6.45;2.90;;;;;;;10.92;75.64;99817.31;5006394;28;20069;-80
2021/10/15 04:05:59;;;;;;;6.75;2.80;;;;;;;10.98;74.36;99822.56;5008724;28;20057;-80
2021/10/15 04:08:24;;;;;;;8.02;1.90;;;;;;;10.84;75.15;99821.25;5012461;28;20394;-80
2021/10/15 04:10:50;;;;;;;6.68;1.48;;;;;;;10.61;75.26;99823.00;5011668;28;20038;-80
2021/10/15 04:13:16;;;;;;;10.25;1.55;;;;;;;10.44;75.79;99816.72;5009449;28;20034;-80
2021/10/15 04:15:42;;;;;;;7.45;1.63;;;;;;;10.51;74.79;99820.06;5009324;28;20065;-80
2021/10/15 04:18:08;;;;;;;10.40;1.70;;;;;;;10.37;75.48;99823.03;5010726;28;20121;-80
2021/10/15 04:20:34;;;;;;;13.90;1.90;;;;;;;10.53;74.91;99820.66;5018117;28;20092;-80
2021/10/15 04:22:59;;;;;;;6.97;1.75;;;;;;;10.30;75.70;99819.66;5020934;28;20037;-80
2021/10/15 04:25:25;;;;;;;5.97;1.60;;;;;;;10.42;75.72;99830.44;5022582;28;20525;-80
2021/10/15 04:27:51;;;;;;;5.72;1.45;;;;;;;10.44;76.00;99831.00;5022921;28;20038;-79
2021/10/15 04:30:16;;;;;;;7.75;1.90;;;;;;;10.39;75.60;99829.00;5018016;28;20032;-80
2021/10/15 04:32:42;;;;;;;7.60;1.45;;;;;;;10.43;75.24;99831.22;5019937;28;20399;-78
2021/10/15 04:35:08;;;;;;;8.93;1.27;;;;;;;10.29;76.37;99839.53;5018280;28;20026;-81
2021/10/15 04:37:34;;;;;;;6.70;1.33;;;;;;;10.33;75.82;99845.28;5018337;28;20038;-79
2021/10/15 04:40:00;;;;;;;7.60;1.42;;;;;;;10.24;75.88;99851.03;5022046;28;20034;-79
2021/10/15 04:42:25;;;;;;;7.43;1.48;;;;;;;10.22;75.64;99855.84;5018212;28;20029;-80
2021/10/15 04:44:52;;;;;;;9.38;1.58;;;;;;;9.87;76.15;99862.09;5017721;28;20100;-79
2021/10/15 04:47:17;;;;;;;6.30;1.00;;;;;;;10.01;75.36;99859.16;5013793;28;20030;-79
2021/10/15 04:49:43;;;;;;;3.70;1.13;;;;;;;10.16;74.56;99866.72;5022827;28;20383;-79
2021/10/15 04:52:09;;;;;;;8.32;1.17;;;;;;;9.96;75.09;99858.00;5022433;28;20491;-80
2021/10/15 04:54:35;;;;;;;6.38;1.60;;;;;;;10.33;73.99;99856.84;5021585;28;20391;-81
2021/10/15 04:57:01;;;;;;;8.20;1.42;;;;;;;10.30;73.16;99857.34;5016912;28;20050;-79
2021/10/15 04:59:27;;;;;;;4.63;1.08;;;;;;;10.24;74.17;99872.59;5012115;28;20637;-79
2021/10/15 05:01:54;;;;;;;7.57;1.42;;;;;;;10.35;73.63;99875.47;5010038;28;20108;-80
2021/10/15 05:04:20;;;;;;;4.90;1.13;;;;;;;10.32;73.99;99874.06;5010610;28;20045;-80
2021/10/15 05:06:45;;;;;;;7.68;0.98;;;;;;;10.09;74.54;99878.44;5013127;28;20446;-80
2021/10/15 05:11:45;;;;;;;122.97;9.95;;;;;;;10.06;74.18;99878.91;5012972;28;20096;-81
2021/10/15 05:14:12;;;;;;;4.70;1.42;;;;;;;10.05;72.96;99885.34;5009963;28;20040;-80
2021/10/15 05:16:38;;;;;;;8.75;1.15;;;;;;;10.10;72.88;99887.34;5027272;28;20037;-80
2021/10/15 05:19:04;;;;;;;15.43;2.35;;;;;;;9.65;74.50;99888.75;5024324;28;20040;-80
2021/10/15 05:21:29;;;;;;;7.03;1.60;;;;;;;9.90;74.24;99898.47;5018917;28;20046;-81
2021/10/15 05:23:55;;;;;;;10.50;2.10;;;;;;;10.04;73.56;99905.25;5016812;28;20117;-81
2021/10/15 05:26:20;;;;;;;8.65;1.52;;;;;;;9.96;73.52;99902.91;5017947;28;20068;-80
2021/10/15 05:28:46;;;;;;;10.02;1.38;;;;;;;9.93;72.83;99904.22;5026030;28;20045;-81
2021/10/15 05:31:11;;;;;;;5.70;1.08;;;;;;;9.85;73.19;99906.41;5017704;28;20418;-81
2021/10/15 05:33:37;;;;;;;8.25;1.33;;;;;;;9.80;73.44;99912.50;5020739;28;20165;-78
2021/10/15 05:36:03;;;;;;;6.72;1.50;;;;;;;9.64;73.50;99917.50;5018266;28;20037;-77
2021/10/15 05:38:28;;;;;;;5.50;1.20;;;;;;;9.68;73.60;99915.19;5018820;28;20452;-78
2021/10/15 05:40:54;;;;;;;3.42;1.00;;;;;;;9.71;73.47;99919.25;5018268;28;20092;-77
2021/10/15 05:43:19;;;;;;;10.50;1.45;;;;;;;9.66;72.61;99931.53;5021335;28;20051;-77
2021/10/15 05:45:47;;;;;;;12.32;1.50;;;;;;;9.49;73.20;99927.88;5019754;28;20026;-77
2021/10/15 05:48:13;;;;;;;10.43;1.88;;;;;;;9.43;73.89;99926.13;5022360;28;20080;-77
2021/10/15 05:50:39;;;;;;;8.35;1.75;;;;;;;9.40;73.13;99930.09;5013772;28;20056;-76
2021/10/15 05:53:10;;;;;;;12.93;1.50;;;;;;;9.34;74.46;99931.81;5026592;28;20483;-75
2021/10/15 05:55:58;;;;;;;8.02;1.45;;;;;;;9.40;73.37;99943.53;5017417;28;20034;-77
2021/10/15 06:01:06;;;;;;;8.23;1.65;;;;;;;9.35;74.82;99935.34;5019299;28;20083;-74
2021/10/15 06:03:31;;;;;;;6.88;1.38;;;;;;;9.40;74.27;99953.47;5011457;28;20037;-75
2021/10/15 06:14:18;;;;;;;8.27;2.15;;;;;;;9.25;74.88;99970.00;5000743;28;20046;-75
2021/10/15 06:16:49;;;;;;;7.97;1.30;;;;;;;9.15;73.45;99955.25;5009783;28;20133;-72
2021/10/15 06:19:18;;;;;;;4.38;1.30;;;;;;;9.10;73.80;99968.56;5018262;28;20095;-75
2021/10/15 06:21:44;;;;;;;9.40;1.50;;;;;;;9.10;72.87;99978.47;5010228;28;20730;-75
2021/10/15 06:24:09;;;;;;;6.00;1.55;;;;;;;9.01;72.63;99976.09;5008251;28;20072;-73
2021/10/15 06:26:35;;;;;;;10.60;2.60;;;;;;;9.00;75.18;99981.72;5013742;28;20157;-74
2021/10/15 06:29:01;;;;;;;5.57;1.63;;;;;;;9.09;74.19;99985.72;5012894;28;20491;-74
2021/10/15 06:31:29;;;;;;;13.77;2.38;;;;;;;9.13;74.65;99988.75;5011529;28;20487;-76
2021/10/15 06:33:55;;;;;;;11.35;1.88;;;;;;;9.12;73.22;99987.13;5006779;28;20048;-75
2021/10/15 06:36:21;;;;;;;9.02;1.80;;;;;;;9.03;74.01;99992.00;5011157;28;20022;-78
2021/10/15 06:38:47;;;;;;;7.07;1.63;;;;;;;9.00;74.66;100003.22;5018798;28;20029;-78
2021/10/15 06:41:13;;;;;;;11.35;1.50;;;;;;;9.07;74.42;100002.06;5014420;28;20038;-76
2021/10/15 06:43:39;;;;;;;7.88;1.58;;;;;;;9.11;74.05;100010.50;5013928;28;20042;-75
2021/10/15 06:46:05;;;;;;;13.88;1.73;;;;;;;9.13;73.94;100012.94;5015415;28;20395;-75
2021/10/15 06:48:31;;;;;;;17.98;2.58;;;;;;;9.29;74.20;100020.38;5010614;28;20074;-75
2021/10/15 06:51:00;;;;;;;10.85;2.45;;;;;;;9.29;74.67;100020.38;5009531;28;20498;-76
2021/10/15 06:53:25;;;;;;;12.25;2.00;;;;;;;9.31;73.70;100031.72;5016412;28;20061;-74
2021/10/15 06:55:51;;;;;;;6.60;1.88;;;;;;;9.21;72.61;100031.44;5009872;28;20109;-73
2021/10/15 06:58:17;;;;;;;16.45;2.63;;;;;;;9.16;73.84;100029.47;5010431;28;20115;-76
2021/10/15 07:00:44;;;;;;;6.65;2.05;;;;;;;9.21;72.92;100032.28;5010820;28;20058;-75
2021/10/15 07:03:17;;;;;;;6.40;1.83;;;;;;;9.12;73.39;100033.66;5009619;28;20466;-75
2021/10/15 07:05:43;;;;;;;7.10;1.83;;;;;;;8.99;73.80;100031.91;5016185;28;20507;-74
2021/10/15 07:08:09;;;;;;;12.00;2.08;;;;;;;8.95;74.52;100046.03;5012977;28;20052;-75
2021/10/15 07:10:34;;;;;;;16.20;2.33;;;;;;;9.01;74.24;100051.31;5011548;28;20377;-74
2021/10/15 07:13:01;;;;;;;9.95;2.55;;;;;;;9.07;73.85;100055.00;5012054;28;20022;-73
2021/10/15 07:15:26;;;;;;;4.55;1.65;;;;;;;9.01;73.24;100056.69;5011230;28;20029;-73
2021/10/15 07:17:53;;;;;;;11.40;2.20;;;;;;;9.05;73.02;100049.03;5012013;28;20096;-73
2021/10/15 07:20:19;;;;;;;8.02;2.00;;;;;;;9.08;73.49;100053.94;5010015;28;20050;-73
2021/10/15 07:22:44;;;;;;;9.05;2.10;;;;;;;9.10;73.08;100057.22;5020087;28;20038;-72
2021/10/15 07:25:10;;;;;;;8.93;2.42;;;;;;;9.25;73.28;100072.16;5023205;28;20037;-73
2021/10/15 07:27:40;;;;;;;13.48;2.00;;;;;;;9.23;73.39;100075.88;5020723;28;20033;-72
2021/10/15 07:30:07;;;;;;;10.23;2.10;;;;;;;9.10;74.12;100075.19;5020971;28;20047;-73
2021/10/15 07:32:34;;;;;;;12.73;1.70;;;;;;;9.20;73.56;100078.19;5023662;28;20129;-73
2021/10/15 07:35:00;;;;;;;8.25;1.85;;;;;;;9.12;73.39;100078.50;5013116;28;20117;-73
2021/10/15 07:37:26;;;;;;;11.48;1.83;;;;;;;9.26;73.58;100071.91;5016006;28;20766;-73
2021/10/15 07:39:52;;;;;;;10.98;1.75;;;;;;;9.11;73.37;100080.38;5001387;28;20045;-73
2021/10/15 07:42:18;;;;;;;9.82;1.75;;;;;;;9.29;72.54;100086.78;5020254;28;20084;-74
2021/10/15 07:44:43;;;;;;;7.40;1.58;;;;;;;9.23;73.04;100094.69;5015562;28;20033;-74
2021/10/15 07:47:09;;;;;;;6.50;1.63;;;;;;;9.36;72.62;100095.56;5021349;28;20025;-73
2021/10/15 07:49:35;;;;;;;14.52;1.98;;;;;;;9.51;72.73;100095.16;4997275;28;20469;-72
2021/10/15 07:52:00;;;;;;;15.32;2.05;;;;;;;9.30;73.24;100101.84;5010727;28;20463;-72
2021/10/15 07:54:26;;;;;;;11.98;2.00;;;;;;;9.44;72.12;100111.41;5023443;28;20030;-73
2021/10/15 07:56:52;;;;;;;23.92;2.72;;;;;;;9.62;71.98;100120.50;5022406;28;20041;-72
2021/10/15 07:59:18;;;;;;;15.60;2.22;;;;;;;9.63;72.24;100116.75;5009319;28;20506;-72
2021/10/15 08:01:44;;;;;;;12.68;1.60;;;;;;;9.60;72.12;100111.81;5023356;28;20045;-70
2021/10/15 08:04:10;;;;;;;14.48;1.90;;;;;;;9.49;72.10;100113.41;5017978;28;20475;-70
2021/10/15 08:06:35;;;;;;;18.02;2.08;;;;;;;9.70;72.04;100122.03;5021266;28;20734;-70
2021/10/15 08:09:01;;;;;;;15.75;2.40;;;;;;;9.67;71.94;100124.13;5006596;28;20056;-70
2021/10/15 08:11:27;;;;;;;15.98;2.13;;;;;;;9.86;71.98;100134.03;5008890;28;20045;-71
2021/10/15 08:13:52;;;;;;;10.70;1.77;;;;;;;9.97;71.84;100133.25;5029940;28;20034;-71
2021/10/15 08:16:19;;;;;;;12.00;1.90;;;;;;;9.98;71.47;100140.28;5018164;28;20060;-71
2021/10/15 08:18:46;;;;;;;14.40;2.40;;;;;;;9.87;72.02;100146.44;5010735;28;20116;-71
2021/10/15 08:21:13;;;;;;;13.73;2.22;;;;;;;9.85;71.34;100137.78;5003699;28;20037;-71
2021/10/15 08:23:39;;;;;;;10.05;1.38;;;;;;;9.87;71.97;100136.50;5026505;28;20029;-72
2021/10/15 08:26:05;;;;;;;9.02;1.58;;;;;;;9.80;71.38;100144.66;5020833;28;20113;-72
2021/10/15 08:28:34;;;;;;;12.93;1.63;;;;;;;9.67;70.58;100152.91;5012459;28;20125;-72
2021/10/15 08:31:03;;;;;;;14.27;1.80;;;;;;;9.61;71.76;100154.63;5007465;28;20407;-72
2021/10/15 08:33:28;;;;;;;16.73;1.40;;;;;;;9.84;70.73;100142.34;5016818;28;20038;-74
2021/10/15 08:35:54;;;;;;;14.60;1.80;;;;;;;9.78;71.03;100145.94;5024147;28;20116;-74
2021/10/15 08:38:20;;;;;;;11.73;2.10;;;;;;;9.91;70.49;100158.38;5014133;28;21023;-72
2021/10/15 08:40:48;;;;;;;11.90;1.50;;;;;;;9.96;71.19;100151.28;5013075;28;20678;-72
2021/10/15 08:43:14;;;;;;;12.23;1.40;;;;;;;9.90;70.14;100151.38;5015044;28;20090;-72
2021/10/15 08:45:41;;;;;;;11.48;1.70;;;;;;;9.99;70.91;100154.56;5017885;28;20029;-71
2021/10/15 08:48:07;;;;;;;9.77;1.55;;;;;;;9.91;70.10;100159.22;5017253;28;20440;-71
2021/10/15 08:50:35;;;;;;;16.77;1.52;;;;;;;9.93;70.33;100167.06;5012812;28;20029;-71
2021/10/15 08:53:03;;;;;;;11.38;1.58;;;;;;;10.09;69.82;100162.91;5026051;28;20156;-72
2021/10/15 08:55:29;;;;;;;10.98;1.88;;;;;;;9.96;69.44;100167.44;5027217;28;20038;-71
2021/10/15 08:57:58;;;;;;;14.57;2.15;;;;;;;10.04;69.98;100165.47;5016536;28;20092;-71
2021/10/15 09:00:37;;;;;;;13.02;1.95;;;;;;;10.26;68.54;100165.75;5008115;28;20450;-71
2021/10/15 09:03:22;;;;;;;20.42;2.40;;;;;;;10.35;68.94;100166.25;5018440;28;20037;-71
2021/10/15 09:06:00;;;;;;;12.70;1.88;;;;;;;10.56;68.52;100164.91;5011396;28;20049;-71
2021/10/15 09:08:42;;;;;;;11.52;2.00;;;;;;;10.61;67.21;100166.91;5013273;28;20036;-71
2021/10/15 09:11:37;;;;;;;11.90;1.90;;;;;;;10.47;68.28;100167.13;5012912;28;20762;-70
2021/10/15 09:14:10;;;;;;;29.88;2.40;;;;;;;10.51;67.87;100172.88;5018286;28;20034;-71
2021/10/15 09:17:14;;;;;;;14.32;2.22;;;;;;;10.47;67.57;100164.44;5024751;28;20120;-72
2021/10/15 09:19:45;;;;;;;17.80;2.42;;;;;;;10.54;67.68;100167.84;5007212;28;20045;-71
2021/10/15 09:22:32;;;;;;;17.85;2.17;;;;;;;10.56;67.12;100169.50;5029254;28;20075;-72
2021/10/15 09:25:11;;;;;;;14.98;2.15;;;;;;;10.82;67.13;100176.31;5025120;28;20052;-71
2021/10/15 09:27:40;;;;;;;22.02;2.85;;;;;;;10.77;67.44;100170.81;5019053;28;20175;-71
2021/10/15 09:30:17;;;;;;;17.02;2.22;;;;;;;10.77;67.48;100176.19;5008669;28;20029;-71
2021/10/15 09:32:48;;;;;;;13.80;1.90;;;;;;;10.71;68.00;100180.63;5014129;28;20034;-71
2021/10/15 09:35:18;;;;;;;20.90;3.03;;;;;;;10.96;66.69;100176.91;5016634;28;20642;-71
2021/10/15 09:37:46;;;;;;;19.23;2.92;;;;;;;10.91;67.52;100179.47;5011663;28;20037;-72
2021/10/15 09:40:14;;;;;;;19.52;2.58;;;;;;;11.02;66.79;100175.16;5005772;28;20037;-73
2021/10/15 09:42:43;;;;;;;14.30;2.20;;;;;;;11.22;66.74;100180.16;5012941;28;20048;-71
2021/10/15 09:45:17;;;;;;;16.50;2.72;;;;;;;11.29;66.21;100194.34;5011995;28;20022;-72
2021/10/15 09:47:46;;;;;;;27.48;2.88;;;;;;;11.36;66.83;100189.66;5021285;28;20021;-72
2021/10/15 09:50:20;;;;;;;20.85;3.90;;;;;;;11.18;66.53;100196.00;5006913;28;20044;-72
2021/10/15 09:52:52;;;;;;;17.08;3.28;;;;;;;11.78;65.69;100190.50;5024115;28;20052;-73
2021/10/15 09:55:19;;;;;;;20.77;2.85;;;;;;;11.87;65.44;100189.06;5016478;28;20120;-73
2021/10/15 09:57:50;;;;;;;14.02;2.47;;;;;;;11.70;64.27;100197.94;5022297;28;20053;-73
2021/10/15 10:00:21;;;;;;;20.55;2.65;;;;;;;11.66;65.05;100195.94;5025289;28;20045;-73
2021/10/15 10:02:48;;;;;;;15.80;2.95;;;;;;;11.91;64.73;100203.72;5027731;28;20061;-74
2021/10/15 10:05:16;;;;;;;17.65;3.25;;;;;;;11.65;65.11;100202.38;5019168;28;20680;-76
2021/10/15 10:07:44;;;;;;;28.55;3.33;;;;;;;11.81;64.23;100203.53;5027208;28;20040;-74
2021/10/15 10:10:14;;;;;;;16.73;2.80;;;;;;;12.02;64.08;100207.47;5023824;28;20041;-74
2021/10/15 10:12:41;;;;;;;16.80;2.70;;;;;;;11.87;63.87;100207.97;5020560;28;20033;-72
2021/10/15 10:15:15;;;;;;;24.33;3.42;;;;;;;12.04;63.66;100205.34;5016713;28;20044;-73
2021/10/15 10:18:15;;;;;;;26.60;3.38;;;;;;;12.56;63.15;100215.19;5020907;28;20073;-73
2021/10/15 10:20:50;;;;;;;26.90;3.63;;;;;;;12.36;62.22;100212.13;5013333;28;20045;-72
2021/10/15 10:23:27;;;;;;;28.48;3.65;;;;;;;11.99;62.29;100200.66;5012492;28;20407;-73
2021/10/15 10:26:01;;;;;;;30.00;4.63;;;;;;;12.00;62.29;100220.38;5012341;28;20510;-71
2021/10/15 10:28:28;;;;;;;25.27;3.33;;;;;;;12.21;62.72;100223.47;5018417;28;20088;-71
2021/10/15 10:31:03;;;;;;;22.58;3.53;;;;;;;12.65;62.60;100225.59;5017246;28;20034;-72
2021/10/15 10:33:29;;;;;;;19.83;3.25;;;;;;;12.63;60.87;100225.84;5014121;28;20056;-73
2021/10/15 10:36:10;;;;;;;20.40;3.38;;;;;;;12.42;60.60;100221.97;5016467;28;20399;-71
2021/10/15 10:38:36;;;;;;;29.10;3.03;;;;;;;12.71;61.72;100230.88;5006100;28;20277;-71
2021/10/15 10:41:01;;;;;;;26.27;3.67;;;;;;;12.30;61.34;100228.25;5015854;28;20056;-72
2021/10/15 10:43:44;;;;;;;26.63;3.40;;;;;;;12.20;60.36;100228.06;5012264;28;20161;-72
2021/10/15 10:46:12;;;;;;;18.63;2.95;;;;;;;12.44;61.86;100233.34;5022343;28;20041;-73
2021/10/15 10:48:46;;;;;;;20.40;3.45;;;;;;;12.68;61.25;100235.91;5015415;28;20213;-73
2021/10/15 10:51:13;;;;;;;23.17;3.58;;;;;;;12.54;60.57;100236.22;5018392;28;20102;-73
2021/10/15 10:53:57;;;;;;;18.77;3.20;;;;;;;12.66;59.59;100238.06;5015577;28;20124;-73
2021/10/15 10:56:39;;;;;;;25.15;3.50;;;;;;;12.40;58.79;100232.19;5014666;28;20037;-72
2021/10/15 10:59:20;;;;;;;18.88;3.20;;;;;;;12.06;60.18;100248.31;5021815;28;20454;-71
2021/10/15 11:01:47;;;;;;;24.75;3.75;;;;;;;12.12;59.99;100239.25;5023325;28;20404;-73
2021/10/15 11:04:47;;;;;;;24.42;3.42;;;;;;;12.42;59.05;100241.72;5019766;28;20075;-77
2021/10/15 11:07:16;;;;;;;24.73;3.25;;;;;;;12.53;60.10;100236.50;5018293;28;20156;-77
2021/10/15 11:10:05;;;;;;;20.65;3.30;;;;;;;12.83;58.62;100236.19;5010993;28;20046;-77
2021/10/15 11:12:31;;;;;;;17.80;3.58;;;;;;;13.25;57.47;100240.34;5013798;28;20033;-76
2021/10/15 11:15:13;;;;;;;28.67;3.58;;;;;;;13.31;57.42;100233.13;5014872;28;20038;-77
2021/10/15 11:17:48;;;;;;;17.45;3.20;;;;;;;13.46;57.42;100235.25;5010156;28;20050;-77
2021/10/15 11:20:24;;;;;;;25.60;3.58;;;;;;;13.46;56.48;100232.53;5013533;28;20029;-78
2021/10/15 11:22:53;;;;;;;28.23;3.78;;;;;;;14.11;55.99;100232.78;5012982;28;20037;-78
2021/10/15 11:25:21;;;;;;;22.90;3.58;;;;;;;14.47;55.11;100235.06;5014228;28;20038;-78
2021/10/15 11:27:56;;;;;;;14.32;2.72;;;;;;;14.08;54.07;100237.91;5012883;28;20486;-78
2021/10/15 11:30:24;;;;;;;20.95;3.35;;;;;;;14.12;53.13;100237.13;5012063;28;20084;-78
2021/10/15 11:32:51;;;;;;;28.95;3.67;;;;;;;14.33;53.98;100240.88;5007370;28;20547;-77
2021/10/15 11:35:24;;;;;;;18.17;3.22;;;;;;;14.62;54.57;100237.09;5010774;28;20030;-78
2021/10/15 11:38:02;;;;;;;18.90;3.05;;;;;;;13.58;54.03;100249.47;5014715;28;20490;-79
2021/10/15 11:40:40;;;;;;;23.88;3.90;;;;;;;13.83;54.45;100250.06;5011837;28;20030;-76
2021/10/15 11:43:32;;;;;;;19.30;3.13;;;;;;;13.66;54.38;100245.53;5010963;28;20125;-77
2021/10/15 11:46:00;;;;;;;22.65;3.08;;;;;;;13.74;54.73;100250.50;5011068;28;20515;-78
2021/10/15 11:48:27;;;;;;;15.95;3.03;;;;;;;13.98;53.21;100241.31;5017732;28;20026;-78